sensor_id;sensor_type;location;lat;lon;timestamp;P1;durP1;ratioP1;P2;durP2;ratioP2
39322;SDS011;25036;53.638;10.134;2023-07-29T00:00:21;2.07;;;1.70;;
39322;SDS011;25036;53.638;10.134;2023-07-29T00:01:21;3.20;;;1.50;;
39322;SDS011;25036;53.638;10.134;2023-07-29T00:02:21;2.80;;;1.80;;
39322;SDS011;25036;53.638;10.134;2023-07-29T00:03:22;2.42;;;1.38;;
39322;SDS011;25036;53.638;10.134;2023-07-29T00:04:22;3.60;;;1.90;;
39322;SDS011;25036;53.638;10.134;2023-07-29T00:05:22;2.75;;;2.10;;
39322;SDS011;25036;53.638;10.134;2023-07-29T00:06:23;6.80;;;2.20;;
39322;SDS011;25036;53.638;10.134;2023-07-29T00:07:23;4.38;;;1.92;;
39322;SDS011;25036;53.638;10.134;2023-07-29T00:08:23;2.63;;;1.60;;
39322;SDS011;25036;53.638;10.134;2023-07-29T00:09:23;2.95;;;2.20;;
39322;SDS011;25036;53.638;10.134;2023-07-29T00:10:24;2.10;;;1.87;;
39322;SDS011;25036;53.638;10.134;2023-07-29T00:11:24;3.03;;;1.93;;
39322;SDS011;25036;53.638;10.134;2023-07-29T00:12:24;2.00;;;1.90;;
39322;SDS011;25036;53.638;10.134;2023-07-29T00:13:24;2.87;;;2.10;;
39322;SDS011;25036;53.638;10.134;2023-07-29T00:14:24;4.47;;;2.10;;
39322;SDS011;25036;53.638;10.134;2023-07-29T00:15:24;2.27;;;2.07;;
39322;SDS011;25036;53.638;10.134;2023-07-29T00:16:24;2.17;;;1.50;;
39322;SDS011;25036;53.638;10.134;2023-07-29T00:17:25;2.53;;;2.00;;
39322;SDS011;25036;53.638;10.134;2023-07-29T00:18:25;6.40;;;2.47;;
39322;SDS011;25036;53.638;10.134;2023-07-29T00:19:25;3.70;;;2.08;;
39322;SDS011;25036;53.638;10.134;2023-07-29T00:20:25;3.10;;;2.03;;
39322;SDS011;25036;53.638;10.134;2023-07-29T00:21:25;2.07;;;1.57;;
39322;SDS011;25036;53.638;10.134;2023-07-29T00:22:26;2.00;;;1.57;;
39322;SDS011;25036;53.638;10.134;2023-07-29T00:23:26;2.80;;;1.80;;
39322;SDS011;25036;53.638;10.134;2023-07-29T00:24:26;2.53;;;1.90;;
39322;SDS011;25036;53.638;10.134;2023-07-29T00:25:26;3.03;;;1.93;;
39322;SDS011;25036;53.638;10.134;2023-07-29T00:26:26;3.63;;;1.90;;
39322;SDS011;25036;53.638;10.134;2023-07-29T00:27:28;4.90;;;2.10;;
39322;SDS011;25036;53.638;10.134;2023-07-29T00:28:29;3.27;;;2.03;;
39322;SDS011;25036;53.638;10.134;2023-07-29T00:29:29;3.23;;;1.97;;
39322;SDS011;25036;53.638;10.134;2023-07-29T00:30:29;6.60;;;2.20;;
39322;SDS011;25036;53.638;10.134;2023-07-29T00:31:29;3.13;;;1.83;;
39322;SDS011;25036;53.638;10.134;2023-07-29T00:32:29;2.97;;;2.20;;
39322;SDS011;25036;53.638;10.134;2023-07-29T00:33:30;5.18;;;2.05;;
39322;SDS011;25036;53.638;10.134;2023-07-29T00:34:30;4.88;;;2.25;;
39322;SDS011;25036;53.638;10.134;2023-07-29T00:35:30;3.42;;;1.75;;
39322;SDS011;25036;53.638;10.134;2023-07-29T00:36:31;4.70;;;2.10;;
39322;SDS011;25036;53.638;10.134;2023-07-29T00:37:31;2.87;;;2.20;;
39322;SDS011;25036;53.638;10.134;2023-07-29T00:38:31;2.20;;;2.00;;
39322;SDS011;25036;53.638;10.134;2023-07-29T00:39:31;2.60;;;2.03;;
39322;SDS011;25036;53.638;10.134;2023-07-29T00:40:32;3.50;;;2.75;;
39322;SDS011;25036;53.638;10.134;2023-07-29T00:41:34;2.90;;;2.60;;
39322;SDS011;25036;53.638;10.134;2023-07-29T00:42:35;4.30;;;2.63;;
39322;SDS011;25036;53.638;10.134;2023-07-29T00:43:35;3.20;;;2.60;;
39322;SDS011;25036;53.638;10.134;2023-07-29T00:44:35;3.83;;;2.47;;
39322;SDS011;25036;53.638;10.134;2023-07-29T00:45:35;6.38;;;2.40;;
39322;SDS011;25036;53.638;10.134;2023-07-29T00:46:36;6.35;;;2.67;;
39322;SDS011;25036;53.638;10.134;2023-07-29T00:47:38;2.63;;;2.22;;
39322;SDS011;25036;53.638;10.134;2023-07-29T00:48:38;3.03;;;2.53;;
39322;SDS011;25036;53.638;10.134;2023-07-29T00:49:38;5.22;;;2.78;;
39322;SDS011;25036;53.638;10.134;2023-07-29T00:50:39;3.08;;;2.30;;
39322;SDS011;25036;53.638;10.134;2023-07-29T00:51:40;2.90;;;2.60;;
39322;SDS011;25036;53.638;10.134;2023-07-29T00:52:40;3.97;;;2.87;;
39322;SDS011;25036;53.638;10.134;2023-07-29T00:53:41;2.88;;;2.60;;
39322;SDS011;25036;53.638;10.134;2023-07-29T00:54:41;3.30;;;3.00;;
39322;SDS011;25036;53.638;10.134;2023-07-29T00:55:42;4.00;;;3.10;;
39322;SDS011;25036;53.638;10.134;2023-07-29T00:56:42;3.67;;;2.45;;
39322;SDS011;25036;53.638;10.134;2023-07-29T00:57:42;5.65;;;3.25;;
39322;SDS011;25036;53.638;10.134;2023-07-29T00:58:47;4.03;;;3.10;;
39322;SDS011;25036;53.638;10.134;2023-07-29T00:59:48;4.53;;;2.80;;
39322;SDS011;25036;53.638;10.134;2023-07-29T01:00:48;5.13;;;2.25;;
39322;SDS011;25036;53.638;10.134;2023-07-29T01:01:49;9.77;;;3.05;;
39322;SDS011;25036;53.638;10.134;2023-07-29T01:02:50;7.03;;;2.90;;
39322;SDS011;25036;53.638;10.134;2023-07-29T01:03:50;6.75;;;2.53;;
39322;SDS011;25036;53.638;10.134;2023-07-29T01:04:53;5.53;;;2.13;;
39322;SDS011;25036;53.638;10.134;2023-07-29T01:05:58;3.22;;;2.35;;
39322;SDS011;25036;53.638;10.134;2023-07-29T01:08:14;3.30;;;2.13;;
39322;SDS011;25036;53.638;10.134;2023-07-29T01:10:04;4.07;;;2.50;;
39322;SDS011;25036;53.638;10.134;2023-07-29T01:10:52;9.10;;;3.03;;
39322;SDS011;25036;53.638;10.134;2023-07-29T01:11:58;2.60;;;2.30;;
39322;SDS011;25036;53.638;10.134;2023-07-29T01:14:06;2.72;;;2.50;;
39322;SDS011;25036;53.638;10.134;2023-07-29T01:15:14;3.10;;;2.40;;
39322;SDS011;25036;53.638;10.134;2023-07-29T01:17:19;4.40;;;2.63;;
39322;SDS011;25036;53.638;10.134;2023-07-29T01:18:26;2.78;;;2.45;;
39322;SDS011;25036;53.638;10.134;2023-07-29T01:19:34;4.63;;;2.80;;
39322;SDS011;25036;53.638;10.134;2023-07-29T01:20:42;3.67;;;2.60;;
39322;SDS011;25036;53.638;10.134;2023-07-29T01:21:43;5.00;;;2.80;;
39322;SDS011;25036;53.638;10.134;2023-07-29T01:22:43;3.40;;;2.80;;
39322;SDS011;25036;53.638;10.134;2023-07-29T01:23:44;2.88;;;2.53;;
39322;SDS011;25036;53.638;10.134;2023-07-29T01:24:44;4.65;;;2.67;;
39322;SDS011;25036;53.638;10.134;2023-07-29T01:25:44;3.37;;;2.30;;
39322;SDS011;25036;53.638;10.134;2023-07-29T01:26:44;2.70;;;2.50;;
39322;SDS011;25036;53.638;10.134;2023-07-29T01:27:45;3.57;;;2.53;;
39322;SDS011;25036;53.638;10.134;2023-07-29T01:28:45;3.60;;;2.75;;
39322;SDS011;25036;53.638;10.134;2023-07-29T01:29:46;3.60;;;2.22;;
39322;SDS011;25036;53.638;10.134;2023-07-29T01:30:46;4.40;;;2.23;;
39322;SDS011;25036;53.638;10.134;2023-07-29T01:31:48;6.22;;;2.42;;
39322;SDS011;25036;53.638;10.134;2023-07-29T01:32:59;3.75;;;2.13;;
39322;SDS011;25036;53.638;10.134;2023-07-29T01:34:35;2.97;;;2.20;;
39322;SDS011;25036;53.638;10.134;2023-07-29T01:35:31;6.65;;;2.45;;
39322;SDS011;25036;53.638;10.134;2023-07-29T01:36:32;5.65;;;2.13;;
39322;SDS011;25036;53.638;10.134;2023-07-29T01:37:34;3.22;;;2.28;;
39322;SDS011;25036;53.638;10.134;2023-07-29T01:38:35;3.95;;;2.28;;
39322;SDS011;25036;53.638;10.134;2023-07-29T01:39:36;5.30;;;2.58;;
39322;SDS011;25036;53.638;10.134;2023-07-29T01:40:36;5.40;;;2.80;;
39322;SDS011;25036;53.638;10.134;2023-07-29T01:41:37;2.45;;;2.20;;
39322;SDS011;25036;53.638;10.134;2023-07-29T01:42:37;3.22;;;1.85;;
39322;SDS011;25036;53.638;10.134;2023-07-29T01:43:37;2.00;;;1.80;;
39322;SDS011;25036;53.638;10.134;2023-07-29T01:44:44;1.90;;;1.75;;
39322;SDS011;25036;53.638;10.134;2023-07-29T01:45:44;2.15;;;1.95;;
39322;SDS011;25036;53.638;10.134;2023-07-29T01:46:45;2.78;;;1.65;;
39322;SDS011;25036;53.638;10.134;2023-07-29T01:47:45;2.72;;;1.75;;
39322;SDS011;25036;53.638;10.134;2023-07-29T01:48:46;2.07;;;1.83;;
39322;SDS011;25036;53.638;10.134;2023-07-29T01:49:46;4.07;;;1.93;;
39322;SDS011;25036;53.638;10.134;2023-07-29T01:50:46;2.80;;;1.70;;
39322;SDS011;25036;53.638;10.134;2023-07-29T01:51:46;4.70;;;2.00;;
39322;SDS011;25036;53.638;10.134;2023-07-29T01:52:46;2.33;;;2.07;;
39322;SDS011;25036;53.638;10.134;2023-07-29T01:53:46;2.23;;;2.03;;
39322;SDS011;25036;53.638;10.134;2023-07-29T01:54:46;2.28;;;1.92;;
39322;SDS011;25036;53.638;10.134;2023-07-29T01:55:47;4.47;;;2.50;;
39322;SDS011;25036;53.638;10.134;2023-07-29T01:56:47;4.30;;;2.53;;
39322;SDS011;25036;53.638;10.134;2023-07-29T01:57:47;3.57;;;2.27;;
39322;SDS011;25036;53.638;10.134;2023-07-29T01:58:47;2.58;;;2.05;;
39322;SDS011;25036;53.638;10.134;2023-07-29T01:59:47;2.80;;;2.43;;
39322;SDS011;25036;53.638;10.134;2023-07-29T02:00:47;2.80;;;2.15;;
39322;SDS011;25036;53.638;10.134;2023-07-29T02:01:48;3.67;;;2.50;;
39322;SDS011;25036;53.638;10.134;2023-07-29T02:02:48;2.88;;;2.30;;
39322;SDS011;25036;53.638;10.134;2023-07-29T02:03:48;2.80;;;2.60;;
39322;SDS011;25036;53.638;10.134;2023-07-29T02:04:54;2.90;;;2.10;;
39322;SDS011;25036;53.638;10.134;2023-07-29T02:05:55;5.55;;;2.28;;
39322;SDS011;25036;53.638;10.134;2023-07-29T02:06:55;3.80;;;2.20;;
39322;SDS011;25036;53.638;10.134;2023-07-29T02:07:56;3.00;;;2.00;;
39322;SDS011;25036;53.638;10.134;2023-07-29T02:08:56;2.40;;;2.20;;
39322;SDS011;25036;53.638;10.134;2023-07-29T02:09:56;3.67;;;2.23;;
39322;SDS011;25036;53.638;10.134;2023-07-29T02:10:56;3.47;;;2.30;;
39322;SDS011;25036;53.638;10.134;2023-07-29T02:11:56;5.97;;;2.90;;
39322;SDS011;25036;53.638;10.134;2023-07-29T02:12:57;4.63;;;2.50;;
39322;SDS011;25036;53.638;10.134;2023-07-29T02:13:57;4.93;;;3.17;;
39322;SDS011;25036;53.638;10.134;2023-07-29T02:14:58;6.45;;;3.10;;
39322;SDS011;25036;53.638;10.134;2023-07-29T02:15:58;6.60;;;3.07;;
39322;SDS011;25036;53.638;10.134;2023-07-29T02:16:58;6.47;;;3.30;;
39322;SDS011;25036;53.638;10.134;2023-07-29T02:17:58;5.13;;;3.67;;
39322;SDS011;25036;53.638;10.134;2023-07-29T02:18:59;5.28;;;3.10;;
39322;SDS011;25036;53.638;10.134;2023-07-29T02:19:59;5.27;;;3.37;;
39322;SDS011;25036;53.638;10.134;2023-07-29T02:20:59;5.22;;;3.47;;
39322;SDS011;25036;53.638;10.134;2023-07-29T02:22:00;7.20;;;3.50;;
39322;SDS011;25036;53.638;10.134;2023-07-29T02:23:00;4.88;;;3.08;;
39322;SDS011;25036;53.638;10.134;2023-07-29T02:24:00;5.75;;;3.67;;
39322;SDS011;25036;53.638;10.134;2023-07-29T02:25:00;6.23;;;3.47;;
39322;SDS011;25036;53.638;10.134;2023-07-29T02:26:01;4.13;;;3.47;;
39322;SDS011;25036;53.638;10.134;2023-07-29T02:27:01;4.20;;;3.70;;
39322;SDS011;25036;53.638;10.134;2023-07-29T02:28:01;6.30;;;3.67;;
39322;SDS011;25036;53.638;10.134;2023-07-29T02:29:03;4.38;;;3.97;;
39322;SDS011;25036;53.638;10.134;2023-07-29T02:30:03;4.27;;;3.87;;
39322;SDS011;25036;53.638;10.134;2023-07-29T02:31:23;4.55;;;3.70;;
39322;SDS011;25036;53.638;10.134;2023-07-29T02:32:23;5.82;;;3.53;;
39322;SDS011;25036;53.638;10.134;2023-07-29T02:33:24;4.53;;;3.83;;
39322;SDS011;25036;53.638;10.134;2023-07-29T02:34:24;4.23;;;3.53;;
39322;SDS011;25036;53.638;10.134;2023-07-29T02:35:24;4.37;;;3.97;;
39322;SDS011;25036;53.638;10.134;2023-07-29T02:36:24;4.47;;;3.80;;
39322;SDS011;25036;53.638;10.134;2023-07-29T02:37:24;4.43;;;4.03;;
39322;SDS011;25036;53.638;10.134;2023-07-29T02:38:24;3.63;;;3.13;;
39322;SDS011;25036;53.638;10.134;2023-07-29T02:39:24;5.07;;;3.80;;
39322;SDS011;25036;53.638;10.134;2023-07-29T02:40:24;4.10;;;3.70;;
39322;SDS011;25036;53.638;10.134;2023-07-29T02:41:26;5.57;;;3.85;;
39322;SDS011;25036;53.638;10.134;2023-07-29T02:42:26;5.47;;;4.03;;
39322;SDS011;25036;53.638;10.134;2023-07-29T02:43:27;4.33;;;3.60;;
39322;SDS011;25036;53.638;10.134;2023-07-29T02:44:27;4.87;;;4.13;;
39322;SDS011;25036;53.638;10.134;2023-07-29T02:45:27;5.53;;;4.33;;
39322;SDS011;25036;53.638;10.134;2023-07-29T02:46:27;4.22;;;3.83;;
39322;SDS011;25036;53.638;10.134;2023-07-29T02:47:27;4.33;;;3.97;;
39322;SDS011;25036;53.638;10.134;2023-07-29T02:48:27;4.80;;;4.30;;
39322;SDS011;25036;53.638;10.134;2023-07-29T02:49:28;3.92;;;3.63;;
39322;SDS011;25036;53.638;10.134;2023-07-29T02:50:28;4.33;;;3.93;;
39322;SDS011;25036;53.638;10.134;2023-07-29T02:51:28;5.60;;;4.00;;
39322;SDS011;25036;53.638;10.134;2023-07-29T02:52:28;5.10;;;4.03;;
39322;SDS011;25036;53.638;10.134;2023-07-29T02:53:29;4.17;;;3.77;;
39322;SDS011;25036;53.638;10.134;2023-07-29T02:54:29;4.50;;;4.10;;
39322;SDS011;25036;53.638;10.134;2023-07-29T02:55:29;4.72;;;3.90;;
39322;SDS011;25036;53.638;10.134;2023-07-29T02:56:29;4.53;;;4.07;;
39322;SDS011;25036;53.638;10.134;2023-07-29T02:57:30;5.15;;;4.15;;
39322;SDS011;25036;53.638;10.134;2023-07-29T02:58:30;4.77;;;4.37;;
39322;SDS011;25036;53.638;10.134;2023-07-29T02:59:30;5.23;;;4.17;;
39322;SDS011;25036;53.638;10.134;2023-07-29T03:00:31;5.23;;;4.33;;
39322;SDS011;25036;53.638;10.134;2023-07-29T03:01:31;4.20;;;3.80;;
39322;SDS011;25036;53.638;10.134;2023-07-29T03:02:31;5.13;;;4.13;;
39322;SDS011;25036;53.638;10.134;2023-07-29T03:03:31;5.00;;;4.50;;
39322;SDS011;25036;53.638;10.134;2023-07-29T03:04:32;5.10;;;4.70;;
39322;SDS011;25036;53.638;10.134;2023-07-29T03:05:32;5.13;;;4.30;;
39322;SDS011;25036;53.638;10.134;2023-07-29T03:06:32;5.07;;;4.67;;
39322;SDS011;25036;53.638;10.134;2023-07-29T03:07:32;4.63;;;4.17;;
39322;SDS011;25036;53.638;10.134;2023-07-29T03:08:33;5.00;;;4.60;;
39322;SDS011;25036;53.638;10.134;2023-07-29T03:09:33;5.95;;;5.25;;
39322;SDS011;25036;53.638;10.134;2023-07-29T03:10:34;4.75;;;4.30;;
39322;SDS011;25036;53.638;10.134;2023-07-29T03:11:35;6.13;;;4.70;;
39322;SDS011;25036;53.638;10.134;2023-07-29T03:12:35;5.30;;;4.80;;
39322;SDS011;25036;53.638;10.134;2023-07-29T03:13:35;5.67;;;4.70;;
39322;SDS011;25036;53.638;10.134;2023-07-29T03:14:35;5.43;;;4.93;;
39322;SDS011;25036;53.638;10.134;2023-07-29T03:15:36;5.07;;;4.57;;
39322;SDS011;25036;53.638;10.134;2023-07-29T03:16:36;5.83;;;4.50;;
39322;SDS011;25036;53.638;10.134;2023-07-29T03:17:36;5.00;;;4.50;;
39322;SDS011;25036;53.638;10.134;2023-07-29T03:18:36;5.07;;;4.63;;
39322;SDS011;25036;53.638;10.134;2023-07-29T03:19:36;5.07;;;4.40;;
39322;SDS011;25036;53.638;10.134;2023-07-29T03:20:36;5.33;;;4.63;;
39322;SDS011;25036;53.638;10.134;2023-07-29T03:21:36;6.50;;;5.00;;
39322;SDS011;25036;53.638;10.134;2023-07-29T03:22:37;5.55;;;5.05;;
39322;SDS011;25036;53.638;10.134;2023-07-29T03:23:37;4.90;;;4.50;;
39322;SDS011;25036;53.638;10.134;2023-07-29T03:24:37;5.18;;;4.75;;
39322;SDS011;25036;53.638;10.134;2023-07-29T03:25:38;6.10;;;5.10;;
39322;SDS011;25036;53.638;10.134;2023-07-29T03:26:38;5.60;;;5.03;;
39322;SDS011;25036;53.638;10.134;2023-07-29T03:27:38;6.47;;;4.80;;
39322;SDS011;25036;53.638;10.134;2023-07-29T03:28:40;5.03;;;4.63;;
39322;SDS011;25036;53.638;10.134;2023-07-29T03:29:40;5.90;;;5.40;;
39322;SDS011;25036;53.638;10.134;2023-07-29T03:30:40;5.90;;;5.40;;
39322;SDS011;25036;53.638;10.134;2023-07-29T03:31:41;5.60;;;5.10;;
39322;SDS011;25036;53.638;10.134;2023-07-29T03:32:42;5.73;;;5.03;;
39322;SDS011;25036;53.638;10.134;2023-07-29T03:33:43;5.20;;;4.80;;
39322;SDS011;25036;53.638;10.134;2023-07-29T03:34:43;5.10;;;4.60;;
39322;SDS011;25036;53.638;10.134;2023-07-29T03:35:43;5.60;;;5.00;;
39322;SDS011;25036;53.638;10.134;2023-07-29T03:36:44;5.43;;;4.72;;
39322;SDS011;25036;53.638;10.134;2023-07-29T03:37:47;7.40;;;4.97;;
39322;SDS011;25036;53.638;10.134;2023-07-29T03:38:47;6.13;;;4.80;;
39322;SDS011;25036;53.638;10.134;2023-07-29T03:39:47;5.85;;;5.35;;
39322;SDS011;25036;53.638;10.134;2023-07-29T03:40:48;6.65;;;5.97;;
39322;SDS011;25036;53.638;10.134;2023-07-29T03:41:48;6.27;;;5.00;;
39322;SDS011;25036;53.638;10.134;2023-07-29T03:42:48;5.80;;;5.20;;
39322;SDS011;25036;53.638;10.134;2023-07-29T03:43:49;6.28;;;5.70;;
39322;SDS011;25036;53.638;10.134;2023-07-29T03:44:49;6.57;;;5.50;;
39322;SDS011;25036;53.638;10.134;2023-07-29T03:45:49;5.53;;;4.90;;
39322;SDS011;25036;53.638;10.134;2023-07-29T03:46:49;5.60;;;5.07;;
39322;SDS011;25036;53.638;10.134;2023-07-29T03:47:50;5.97;;;5.25;;
39322;SDS011;25036;53.638;10.134;2023-07-29T03:48:50;7.43;;;5.93;;
39322;SDS011;25036;53.638;10.134;2023-07-29T03:49:50;5.90;;;5.17;;
39322;SDS011;25036;53.638;10.134;2023-07-29T03:50:50;5.50;;;5.00;;
39322;SDS011;25036;53.638;10.134;2023-07-29T03:51:50;5.97;;;5.47;;
39322;SDS011;25036;53.638;10.134;2023-07-29T03:52:50;6.37;;;5.80;;
39322;SDS011;25036;53.638;10.134;2023-07-29T03:53:50;7.57;;;6.03;;
39322;SDS011;25036;53.638;10.134;2023-07-29T03:54:51;6.13;;;5.57;;
39322;SDS011;25036;53.638;10.134;2023-07-29T03:55:51;6.63;;;6.03;;
39322;SDS011;25036;53.638;10.134;2023-07-29T03:56:51;6.07;;;5.47;;
39322;SDS011;25036;53.638;10.134;2023-07-29T03:57:51;6.77;;;6.13;;
39322;SDS011;25036;53.638;10.134;2023-07-29T03:58:52;6.70;;;6.07;;
39322;SDS011;25036;53.638;10.134;2023-07-29T03:59:52;6.93;;;6.30;;
39322;SDS011;25036;53.638;10.134;2023-07-29T04:00:52;8.33;;;6.60;;
39322;SDS011;25036;53.638;10.134;2023-07-29T04:01:52;6.57;;;5.97;;
39322;SDS011;25036;53.638;10.134;2023-07-29T04:02:52;6.90;;;6.23;;
39322;SDS011;25036;53.638;10.134;2023-07-29T04:03:52;7.23;;;6.53;;
39322;SDS011;25036;53.638;10.134;2023-07-29T04:04:52;7.60;;;6.80;;
39322;SDS011;25036;53.638;10.134;2023-07-29T04:05:52;9.67;;;7.37;;
39322;SDS011;25036;53.638;10.134;2023-07-29T04:06:53;8.03;;;6.87;;
39322;SDS011;25036;53.638;10.134;2023-07-29T04:07:53;8.40;;;6.70;;
39322;SDS011;25036;53.638;10.134;2023-07-29T04:08:54;8.02;;;7.22;;
39322;SDS011;25036;53.638;10.134;2023-07-29T04:09:54;8.50;;;7.57;;
39322;SDS011;25036;53.638;10.134;2023-07-29T04:10:54;8.07;;;7.30;;
39322;SDS011;25036;53.638;10.134;2023-07-29T04:11:55;8.55;;;7.47;;
39322;SDS011;25036;53.638;10.134;2023-07-29T04:12:55;8.40;;;7.60;;
39322;SDS011;25036;53.638;10.134;2023-07-29T04:13:55;10.27;;;9.18;;
39322;SDS011;25036;53.638;10.134;2023-07-29T04:14:55;8.90;;;8.10;;
39322;SDS011;25036;53.638;10.134;2023-07-29T04:15:55;9.83;;;8.43;;
39322;SDS011;25036;53.638;10.134;2023-07-29T04:16:55;10.03;;;9.00;;
39322;SDS011;25036;53.638;10.134;2023-07-29T04:17:56;9.77;;;8.50;;
39322;SDS011;25036;53.638;10.134;2023-07-29T04:18:56;10.90;;;9.27;;
39322;SDS011;25036;53.638;10.134;2023-07-29T04:19:56;11.57;;;10.40;;
39322;SDS011;25036;53.638;10.134;2023-07-29T04:20:56;12.57;;;9.50;;
39322;SDS011;25036;53.638;10.134;2023-07-29T04:21:56;11.87;;;10.20;;
39322;SDS011;25036;53.638;10.134;2023-07-29T04:22:56;11.97;;;10.60;;
39322;SDS011;25036;53.638;10.134;2023-07-29T04:23:57;11.87;;;10.67;;
39322;SDS011;25036;53.638;10.134;2023-07-29T04:24:57;12.87;;;11.07;;
39322;SDS011;25036;53.638;10.134;2023-07-29T04:25:57;12.82;;;11.63;;
39322;SDS011;25036;53.638;10.134;2023-07-29T04:26:57;13.17;;;11.97;;
39322;SDS011;25036;53.638;10.134;2023-07-29T04:27:57;12.13;;;10.93;;
39322;SDS011;25036;53.638;10.134;2023-07-29T04:28:58;12.95;;;11.15;;
39322;SDS011;25036;53.638;10.134;2023-07-29T04:29:58;12.98;;;11.68;;
39322;SDS011;25036;53.638;10.134;2023-07-29T04:30:58;13.32;;;12.02;;
39322;SDS011;25036;53.638;10.134;2023-07-29T04:31:59;13.88;;;12.35;;
39322;SDS011;25036;53.638;10.134;2023-07-29T04:33:01;13.18;;;11.82;;
39322;SDS011;25036;53.638;10.134;2023-07-29T04:34:01;14.43;;;12.93;;
39322;SDS011;25036;53.638;10.134;2023-07-29T04:35:02;14.77;;;13.18;;
39322;SDS011;25036;53.638;10.134;2023-07-29T04:36:02;18.55;;;13.15;;
39322;SDS011;25036;53.638;10.134;2023-07-29T04:37:03;14.85;;;13.27;;
39322;SDS011;25036;53.638;10.134;2023-07-29T04:38:03;16.63;;;13.50;;
39322;SDS011;25036;53.638;10.134;2023-07-29T04:39:03;15.83;;;14.23;;
39322;SDS011;25036;53.638;10.134;2023-07-29T04:40:03;17.17;;;15.00;;
39322;SDS011;25036;53.638;10.134;2023-07-29T04:41:04;17.50;;;15.80;;
39322;SDS011;25036;53.638;10.134;2023-07-29T04:42:06;16.90;;;15.10;;
39322;SDS011;25036;53.638;10.134;2023-07-29T04:43:07;16.83;;;15.13;;
39322;SDS011;25036;53.638;10.134;2023-07-29T04:44:07;16.83;;;15.23;;
39322;SDS011;25036;53.638;10.134;2023-07-29T04:45:07;17.88;;;15.98;;
39322;SDS011;25036;53.638;10.134;2023-07-29T04:46:07;18.05;;;16.15;;
39322;SDS011;25036;53.638;10.134;2023-07-29T04:47:08;17.75;;;15.00;;
39322;SDS011;25036;53.638;10.134;2023-07-29T04:48:08;17.40;;;15.60;;
39322;SDS011;25036;53.638;10.134;2023-07-29T04:49:09;18.17;;;15.40;;
39322;SDS011;25036;53.638;10.134;2023-07-29T04:50:09;16.90;;;14.87;;
39322;SDS011;25036;53.638;10.134;2023-07-29T04:51:09;17.85;;;16.05;;
39322;SDS011;25036;53.638;10.134;2023-07-29T04:52:09;17.13;;;15.43;;
39322;SDS011;25036;53.638;10.134;2023-07-29T04:53:09;17.93;;;15.87;;
39322;SDS011;25036;53.638;10.134;2023-07-29T04:54:09;17.60;;;15.93;;
39322;SDS011;25036;53.638;10.134;2023-07-29T04:55:09;18.40;;;16.00;;
39322;SDS011;25036;53.638;10.134;2023-07-29T04:56:10;17.43;;;15.20;;
39322;SDS011;25036;53.638;10.134;2023-07-29T04:57:10;17.37;;;15.23;;
39322;SDS011;25036;53.638;10.134;2023-07-29T04:58:10;18.10;;;16.10;;
39322;SDS011;25036;53.638;10.134;2023-07-29T04:59:10;18.10;;;15.55;;
39322;SDS011;25036;53.638;10.134;2023-07-29T05:00:12;18.85;;;16.73;;
39322;SDS011;25036;53.638;10.134;2023-07-29T05:01:13;17.80;;;16.00;;
39322;SDS011;25036;53.638;10.134;2023-07-29T05:02:13;18.63;;;16.73;;
39322;SDS011;25036;53.638;10.134;2023-07-29T05:03:13;18.35;;;16.40;;
39322;SDS011;25036;53.638;10.134;2023-07-29T05:04:13;19.13;;;17.13;;
39322;SDS011;25036;53.638;10.134;2023-07-29T05:05:14;18.80;;;16.83;;
39322;SDS011;25036;53.638;10.134;2023-07-29T05:06:14;19.00;;;16.60;;
39322;SDS011;25036;53.638;10.134;2023-07-29T05:07:14;20.30;;;17.13;;
39322;SDS011;25036;53.638;10.134;2023-07-29T05:08:14;19.63;;;16.43;;
39322;SDS011;25036;53.638;10.134;2023-07-29T05:09:15;19.53;;;17.30;;
39322;SDS011;25036;53.638;10.134;2023-07-29T05:10:15;19.13;;;17.23;;
39322;SDS011;25036;53.638;10.134;2023-07-29T05:11:16;18.93;;;17.07;;
39322;SDS011;25036;53.638;10.134;2023-07-29T05:12:16;18.00;;;16.15;;
39322;SDS011;25036;53.638;10.134;2023-07-29T05:13:17;18.33;;;16.40;;
39322;SDS011;25036;53.638;10.134;2023-07-29T05:14:18;18.33;;;16.40;;
39322;SDS011;25036;53.638;10.134;2023-07-29T05:15:18;18.50;;;16.58;;
39322;SDS011;25036;53.638;10.134;2023-07-29T05:16:18;18.17;;;16.20;;
39322;SDS011;25036;53.638;10.134;2023-07-29T05:17:18;18.40;;;16.50;;
39322;SDS011;25036;53.638;10.134;2023-07-29T05:18:19;17.97;;;16.07;;
39322;SDS011;25036;53.638;10.134;2023-07-29T05:19:19;18.13;;;15.77;;
39322;SDS011;25036;53.638;10.134;2023-07-29T05:20:19;19.03;;;17.00;;
39322;SDS011;25036;53.638;10.134;2023-07-29T05:21:19;17.97;;;16.20;;
39322;SDS011;25036;53.638;10.134;2023-07-29T05:22:19;18.03;;;15.97;;
39322;SDS011;25036;53.638;10.134;2023-07-29T05:23:19;18.00;;;16.17;;
39322;SDS011;25036;53.638;10.134;2023-07-29T05:24:19;18.57;;;16.70;;
39322;SDS011;25036;53.638;10.134;2023-07-29T05:25:20;18.03;;;16.17;;
39322;SDS011;25036;53.638;10.134;2023-07-29T05:26:20;18.40;;;16.37;;
39322;SDS011;25036;53.638;10.134;2023-07-29T05:27:20;17.57;;;15.33;;
39322;SDS011;25036;53.638;10.134;2023-07-29T05:28:20;19.07;;;16.30;;
39322;SDS011;25036;53.638;10.134;2023-07-29T05:29:20;19.00;;;16.50;;
39322;SDS011;25036;53.638;10.134;2023-07-29T05:30:20;17.73;;;15.97;;
39322;SDS011;25036;53.638;10.134;2023-07-29T05:31:21;17.40;;;15.37;;
39322;SDS011;25036;53.638;10.134;2023-07-29T05:32:22;17.92;;;16.02;;
39322;SDS011;25036;53.638;10.134;2023-07-29T05:33:22;17.27;;;15.57;;
39322;SDS011;25036;53.638;10.134;2023-07-29T05:34:22;17.17;;;15.37;;
39322;SDS011;25036;53.638;10.134;2023-07-29T05:35:22;17.20;;;14.93;;
39322;SDS011;25036;53.638;10.134;2023-07-29T05:36:22;17.20;;;14.93;;
39322;SDS011;25036;53.638;10.134;2023-07-29T05:37:23;18.17;;;16.20;;
39322;SDS011;25036;53.638;10.134;2023-07-29T05:38:23;16.43;;;14.47;;
39322;SDS011;25036;53.638;10.134;2023-07-29T05:39:23;16.83;;;14.17;;
39322;SDS011;25036;53.638;10.134;2023-07-29T05:40:24;18.40;;;16.23;;
39322;SDS011;25036;53.638;10.134;2023-07-29T05:41:24;17.47;;;15.53;;
39322;SDS011;25036;53.638;10.134;2023-07-29T05:42:27;17.92;;;16.05;;
39322;SDS011;25036;53.638;10.134;2023-07-29T05:43:27;16.73;;;15.00;;
39322;SDS011;25036;53.638;10.134;2023-07-29T05:44:27;17.97;;;16.17;;
39322;SDS011;25036;53.638;10.134;2023-07-29T05:45:28;17.55;;;15.65;;
39322;SDS011;25036;53.638;10.134;2023-07-29T05:46:30;17.08;;;15.27;;
39322;SDS011;25036;53.638;10.134;2023-07-29T05:47:31;17.50;;;15.70;;
39322;SDS011;25036;53.638;10.134;2023-07-29T05:48:31;16.97;;;15.20;;
39322;SDS011;25036;53.638;10.134;2023-07-29T05:49:31;17.93;;;16.03;;
39322;SDS011;25036;53.638;10.134;2023-07-29T05:50:31;20.63;;;16.53;;
39322;SDS011;25036;53.638;10.134;2023-07-29T05:51:31;18.07;;;16.17;;
39322;SDS011;25036;53.638;10.134;2023-07-29T05:52:31;17.43;;;15.30;;
39322;SDS011;25036;53.638;10.134;2023-07-29T05:53:32;17.67;;;15.80;;
39322;SDS011;25036;53.638;10.134;2023-07-29T05:54:32;18.40;;;16.50;;
39322;SDS011;25036;53.638;10.134;2023-07-29T05:55:32;15.93;;;14.10;;
39322;SDS011;25036;53.638;10.134;2023-07-29T05:56:32;16.73;;;15.00;;
39322;SDS011;25036;53.638;10.134;2023-07-29T05:57:32;16.48;;;14.88;;
39322;SDS011;25036;53.638;10.134;2023-07-29T05:58:32;17.00;;;14.63;;
39322;SDS011;25036;53.638;10.134;2023-07-29T05:59:33;16.37;;;14.60;;
39322;SDS011;25036;53.638;10.134;2023-07-29T06:00:33;19.20;;;15.60;;